createdAt,value
2023-02-10T00:00:32.261Z,71.28
2023-02-10T00:01:32.272Z,72.10
2023-02-10T00:02:32.260Z,71.36
2023-02-10T00:03:32.313Z,72.66
2023-02-10T00:04:32.218Z,71.36
2023-02-10T00:05:32.341Z,70.51
2023-02-10T00:06:32.203Z,70.58
2023-02-10T00:07:32.215Z,70.94
2023-02-10T00:08:32.210Z,71.67
2023-02-10T00:09:32.170Z,71.67
2023-02-10T00:10:32.164Z,70.51
2023-02-10T00:11:32.164Z,70.40
2023-02-10T00:12:32.138Z,70.51
2023-02-10T00:13:32.145Z,70.90
2023-02-10T00:14:32.139Z,70.16
2023-02-10T00:15:32.114Z,68.57
2023-02-10T00:16:32.179Z,68.88
2023-02-10T00:17:32.087Z,69.20
2023-02-10T00:18:32.081Z,71.33
2023-02-10T00:19:32.128Z,71.81
2023-02-10T00:20:32.057Z,71.14
2023-02-10T00:21:32.072Z,70.51
2023-02-10T00:22:32.049Z,69.23
2023-02-10T00:23:32.029Z,71.11
2023-02-10T00:24:32.031Z,72.10
2023-02-10T00:25:32.028Z,72.66
2023-02-10T00:26:31.991Z,71.07
2023-02-10T00:27:31.987Z,71.11
2023-02-10T00:28:32.083Z,71.77
2023-02-10T00:29:31.965Z,72.83
2023-02-10T00:30:31.953Z,72.49
2023-02-10T00:31:32.030Z,70.22
2023-02-10T00:32:31.931Z,66.93
2023-02-10T00:33:31.921Z,68.10
2023-02-10T00:34:31.945Z,67.22
2023-02-10T00:35:31.903Z,65.38
2023-02-10T00:36:31.896Z,63.65
2023-02-10T00:37:31.903Z,65.09
2023-02-10T00:38:31.890Z,65.94
2023-02-10T00:39:31.858Z,68.70
2023-02-10T00:40:31.857Z,69.13
2023-02-10T00:41:31.849Z,68.49
2023-02-10T00:42:31.828Z,67.67
2023-02-10T00:43:31.829Z,67.54
2023-02-10T00:44:31.818Z,68.31
2023-02-10T00:45:31.824Z,68.49
2023-02-10T00:46:31.804Z,68.73
2023-02-10T00:47:31.788Z,67.14
2023-02-10T00:48:31.770Z,68.84
2023-02-10T00:49:31.757Z,70.65
2023-02-10T00:50:31.776Z,71.60
2023-02-10T00:51:31.743Z,71.00
2023-02-10T00:52:31.732Z,69.72
2023-02-10T00:53:31.732Z,69.75
2023-02-10T00:54:31.711Z,70.92
2023-02-10T00:55:31.698Z,71.35
2023-02-10T00:56:31.682Z,72.52
2023-02-10T00:57:31.682Z,72.87
2023-02-10T00:58:31.662Z,73.05
2023-02-10T00:59:31.654Z,73.05
2023-02-10T01:00:31.652Z,71.98
2023-02-10T01:01:31.645Z,71.88
2023-02-10T01:02:31.629Z,71.70
2023-02-10T01:03:31.607Z,72.41
2023-02-10T01:04:31.595Z,71.03
2023-02-10T01:05:31.586Z,73.26
2023-02-10T01:06:31.587Z,73.40
2023-02-10T01:07:31.574Z,71.81
2023-02-10T01:08:31.577Z,70.42
2023-02-10T01:09:31.565Z,71.59
2023-02-10T01:10:31.531Z,70.61
2023-02-10T01:11:31.528Z,69.54
2023-02-10T01:12:31.510Z,70.39
2023-02-10T01:13:31.500Z,71.03
2023-02-10T01:14:31.494Z,70.71
2023-02-10T01:15:31.493Z,69.96
2023-02-10T01:16:31.575Z,71.35
2023-02-10T01:17:31.459Z,72.09
2023-02-10T01:18:31.456Z,72.66
2023-02-10T01:19:31.458Z,72.87
2023-02-10T01:20:31.435Z,73.30
2023-02-10T01:21:31.422Z,71.91
2023-02-10T01:22:31.399Z,72.97
2023-02-10T01:23:31.412Z,72.34
2023-02-10T01:24:31.388Z,71.91
2023-02-10T01:25:31.394Z,71.48
2023-02-10T01:26:31.390Z,69.68
2023-02-10T01:27:31.346Z,69.96
2023-02-10T01:28:31.460Z,70.07
2023-02-10T01:29:31.344Z,70.74
2023-02-10T01:30:31.319Z,70.92
2023-02-10T01:31:31.346Z,71.45
2023-02-10T01:32:31.302Z,71.38
2023-02-10T01:33:31.307Z,72.44
2023-02-10T01:34:31.273Z,72.23
2023-02-10T01:35:31.266Z,72.52
2023-02-10T01:36:31.274Z,70.71
2023-02-10T01:37:31.260Z,72.09
2023-02-10T01:38:32.744Z,71.45
2023-02-10T01:39:31.315Z,71.88
2023-02-10T01:40:31.208Z,73.61
2023-02-10T01:41:31.222Z,74.11
2023-02-10T01:42:31.192Z,72.97
2023-02-10T01:43:31.182Z,72.87
2023-02-10T01:44:31.177Z,73.30
2023-02-10T01:45:31.257Z,73.30
2023-02-10T01:46:31.160Z,71.91
2023-02-10T01:47:31.139Z,72.44
2023-02-10T01:48:31.136Z,72.09
2023-02-10T01:49:31.144Z,72.76
2023-02-10T01:50:31.150Z,72.34
2023-02-10T01:51:31.096Z,71.27
2023-02-10T01:52:31.086Z,71.00
2023-02-10T01:53:31.091Z,71.00
2023-02-10T01:54:31.062Z,70.50
2023-02-10T01:55:31.069Z,70.50
2023-02-10T01:56:31.060Z,70.18
2023-02-10T01:57:31.053Z,69.43
2023-02-10T01:58:31.018Z,69.86
2023-02-10T01:59:31.035Z,69.51
2023-02-10T02:00:31.009Z,70.61
2023-02-10T02:01:33.253Z,69.75
2023-02-10T02:02:31.058Z,69.51
2023-02-10T02:03:30.969Z,70.78
2023-02-10T02:04:30.970Z,68.55
2023-02-10T02:05:30.959Z,68.66
2023-02-10T02:06:30.947Z,68.76
2023-02-10T02:07:30.933Z,67.91
2023-02-10T02:08:30.925Z,67.81
2023-02-10T02:09:30.910Z,69.51
2023-02-10T02:10:30.894Z,71.00
2023-02-10T02:11:30.897Z,70.78
2023-02-10T02:12:30.877Z,71.35
2023-02-10T02:13:30.889Z,70.81
2023-02-10T02:14:30.867Z,69.62
2023-02-10T02:15:30.848Z,68.23
2023-02-10T02:16:30.871Z,68.55
2023-02-10T02:17:30.823Z,68.73
2023-02-10T02:18:30.818Z,69.54
2023-02-10T02:19:30.808Z,68.66
2023-02-10T02:20:30.798Z,68.73
2023-02-10T02:21:30.785Z,69.06
2023-02-10T02:22:30.790Z,67.28
2023-02-10T02:23:30.762Z,66.96
2023-02-10T02:24:30.750Z,66.56
2023-02-10T02:25:30.746Z,67.38
2023-02-10T02:26:30.743Z,70.36
2023-02-10T02:27:30.736Z,71.21
2023-02-10T02:28:30.708Z,70.15
2023-02-10T02:29:30.724Z,70.57
2023-02-10T02:30:30.790Z,71.00
2023-02-10T02:31:30.679Z,71.11
2023-02-10T02:32:30.673Z,71.00
2023-02-10T02:33:30.665Z,70.78
2023-02-10T02:34:30.649Z,70.50
2023-02-10T02:35:30.636Z,69.72
2023-02-10T02:36:30.626Z,70.71
2023-02-10T02:37:30.633Z,70.68
2023-02-10T02:38:30.626Z,69.40
2023-02-10T02:39:30.596Z,68.87
2023-02-10T02:40:30.582Z,69.12
2023-02-10T02:41:30.576Z,68.79
2023-02-10T02:42:30.574Z,68.02
2023-02-10T02:43:30.554Z,69.40
2023-02-10T02:44:30.572Z,68.23
2023-02-10T02:45:30.553Z,67.28
2023-02-10T02:46:30.588Z,67.38
2023-02-10T02:47:30.643Z,67.70
2023-02-10T02:48:30.505Z,68.79
2023-02-10T02:49:30.516Z,69.93
2023-02-10T02:50:30.489Z,71.00
2023-02-10T02:51:30.471Z,70.92
2023-02-10T02:52:30.457Z,71.03
2023-02-10T02:53:30.475Z,70.07
2023-02-10T02:54:30.436Z,69.29
2023-02-10T02:55:30.441Z,70.61
2023-02-10T02:56:30.442Z,70.50
2023-02-10T02:57:30.418Z,70.28
2023-02-10T02:58:30.394Z,69.86
2023-02-10T02:59:30.396Z,68.34
2023-02-10T03:00:30.402Z,69.75
2023-02-10T03:01:30.414Z,70.71
2023-02-10T03:02:30.378Z,70.61
2023-02-10T03:03:30.359Z,70.61
2023-02-10T03:04:30.366Z,70.92
2023-02-10T03:05:30.329Z,70.39
2023-02-10T03:06:30.313Z,69.86
2023-02-10T03:07:30.324Z,70.18
2023-02-10T03:08:30.315Z,69.86
2023-02-10T03:09:30.294Z,69.29
2023-02-10T03:10:30.274Z,68.69
2023-02-10T03:11:30.268Z,68.76
2023-02-10T03:12:30.256Z,69.43
2023-02-10T03:13:30.254Z,70.15
2023-02-10T03:14:30.245Z,71.11
2023-02-10T03:15:30.273Z,70.47
2023-02-10T03:16:30.216Z,70.50
2023-02-10T03:17:30.239Z,70.25
2023-02-10T03:18:30.194Z,70.36
2023-02-10T03:19:30.180Z,68.98
2023-02-10T03:20:30.196Z,69.51
2023-02-10T03:21:30.157Z,68.55
2023-02-10T03:22:30.149Z,68.48
2023-02-10T03:23:30.152Z,70.89
2023-02-10T03:24:30.146Z,71.14
2023-02-10T03:25:30.112Z,69.29
2023-02-10T03:26:30.139Z,67.94
2023-02-10T03:27:30.087Z,68.76
2023-02-10T03:28:30.187Z,70.39
2023-02-10T03:29:30.099Z,70.47
2023-02-10T03:30:30.067Z,69.86
2023-02-10T03:31:30.222Z,69.12
2023-02-10T03:32:30.058Z,69.09
2023-02-10T03:33:30.046Z,70.18
2023-02-10T03:34:30.035Z,70.39
2023-02-10T03:35:30.005Z,70.81
2023-02-10T03:36:30.001Z,70.39
2023-02-10T03:37:29.983Z,70.81
2023-02-10T03:38:29.996Z,70.07
2023-02-10T03:39:29.974Z,68.59
2023-02-10T03:40:29.975Z,68.59
2023-02-10T03:41:29.940Z,67.91
2023-02-10T03:42:30.044Z,68.79
2023-02-10T03:43:29.940Z,68.59
2023-02-10T03:44:29.927Z,67.20
2023-02-10T03:45:29.911Z,67.73
2023-02-10T03:46:29.941Z,67.20
2023-02-10T03:47:29.878Z,66.99
2023-02-10T03:48:29.893Z,66.75
2023-02-10T03:49:29.893Z,66.77
2023-02-10T03:50:30.861Z,69.12
2023-02-10T03:51:29.839Z,67.97
2023-02-10T03:52:29.831Z,66.91
2023-02-10T03:53:29.828Z,67.66
2023-02-10T03:54:29.816Z,69.01
2023-02-10T03:55:29.794Z,69.89
2023-02-10T03:56:29.925Z,69.78
2023-02-10T03:57:29.775Z,70.18
2023-02-10T03:58:29.771Z,70.07
2023-02-10T03:59:29.753Z,68.69
2023-02-10T04:00:29.752Z,68.26
2023-02-10T04:01:29.785Z,68.26
2023-02-10T04:02:29.747Z,67.97
2023-02-10T04:03:29.727Z,66.99
2023-02-10T04:04:29.729Z,67.94
2023-02-10T04:05:29.711Z,68.76
2023-02-10T04:06:29.693Z,68.48
2023-02-10T04:07:29.670Z,68.48
2023-02-10T04:08:29.700Z,68.37
2023-02-10T04:09:29.649Z,68.48
2023-02-10T04:10:29.640Z,67.41
2023-02-10T04:11:29.630Z,67.13
2023-02-10T04:12:29.631Z,67.70
2023-02-10T04:13:29.604Z,68.34
2023-02-10T04:14:29.607Z,68.48
2023-02-10T04:15:29.584Z,67.23
2023-02-10T04:16:29.576Z,66.88
2023-02-10T04:17:29.575Z,67.20
2023-02-10T04:18:29.568Z,68.59
2023-02-10T04:19:29.551Z,69.01
2023-02-10T04:20:29.554Z,67.63
2023-02-10T04:21:29.568Z,67.20
2023-02-10T04:22:29.513Z,66.14
2023-02-10T04:23:29.504Z,66.77
2023-02-10T04:24:29.499Z,67.10
2023-02-10T04:25:29.484Z,66.14
2023-02-10T04:26:29.480Z,66.24
2023-02-10T04:27:29.574Z,67.31
2023-02-10T04:28:29.497Z,66.99
2023-02-10T04:29:29.444Z,67.20
2023-02-10T04:30:29.450Z,67.52
2023-02-10T04:31:29.542Z,69.01
2023-02-10T04:32:29.448Z,68.37
2023-02-10T04:33:29.415Z,68.79
2023-02-10T04:34:29.394Z,67.33
2023-02-10T04:35:29.381Z,68.59
2023-02-10T04:36:29.387Z,69.33
2023-02-10T04:37:29.385Z,68.37
2023-02-10T04:38:29.367Z,68.48
2023-02-10T04:39:29.355Z,69.33
2023-02-10T04:40:29.331Z,69.33
2023-02-10T04:41:29.324Z,68.48
2023-02-10T04:42:29.309Z,68.26
2023-02-10T04:43:29.314Z,68.48
2023-02-10T04:44:29.311Z,68.79
2023-02-10T04:45:29.283Z,68.59
2023-02-10T04:46:29.313Z,70.10
2023-02-10T04:47:29.258Z,71.06
2023-02-10T04:48:29.265Z,71.52
2023-02-10T04:49:29.238Z,71.31
2023-02-10T04:50:29.238Z,70.64
2023-02-10T04:51:29.236Z,69.46
2023-02-10T04:52:29.207Z,68.40
2023-02-10T04:53:29.211Z,68.93
2023-02-10T04:54:29.190Z,68.83
2023-02-10T04:55:29.174Z,70.00
2023-02-10T04:56:29.187Z,70.00
2023-02-10T04:57:29.168Z,69.89
2023-02-10T04:58:29.168Z,68.29
2023-02-10T04:59:29.141Z,68.37
2023-02-10T05:00:29.303Z,67.63
2023-02-10T05:01:29.115Z,68.37
2023-02-10T05:02:29.117Z,68.51
2023-02-10T05:03:29.096Z,68.65
2023-02-10T05:04:29.098Z,69.89
2023-02-10T05:05:29.083Z,69.68
2023-02-10T05:06:29.064Z,70.18
2023-02-10T05:07:29.052Z,70.95
2023-02-10T05:08:29.049Z,70.95
2023-02-10T05:09:29.049Z,69.78
2023-02-10T05:10:29.042Z,68.93
2023-02-10T05:11:29.010Z,69.68
2023-02-10T05:12:28.996Z,70.28
2023-02-10T05:13:28.981Z,69.28
2023-02-10T05:14:28.984Z,68.40
2023-02-10T05:15:28.967Z,68.59
2023-02-10T05:16:29.007Z,68.59
2023-02-10T05:17:28.953Z,68.48
2023-02-10T05:18:28.932Z,68.69
2023-02-10T05:19:28.917Z,68.51
2023-02-10T05:20:28.938Z,68.59
2023-02-10T05:21:28.916Z,67.41
2023-02-10T05:22:28.902Z,66.77
2023-02-10T05:23:28.880Z,68.59
2023-02-10T05:24:28.870Z,69.65
2023-02-10T05:25:28.882Z,70.81
2023-02-10T05:26:28.862Z,70.85
2023-02-10T05:27:28.850Z,70.53
2023-02-10T05:28:28.908Z,70.07
2023-02-10T05:29:28.813Z,71.14
2023-02-10T05:30:28.806Z,70.95
2023-02-10T05:31:28.895Z,70.42
2023-02-10T05:32:28.824Z,70.10
2023-02-10T05:33:28.816Z,69.65
2023-02-10T05:34:28.767Z,69.01
2023-02-10T05:35:28.754Z,68.93
2023-02-10T05:36:28.744Z,68.59
2023-02-10T05:37:28.732Z,67.84
2023-02-10T05:38:28.752Z,67.63
2023-02-10T05:39:28.728Z,68.51
2023-02-10T05:40:28.712Z,68.59
2023-02-10T05:41:28.712Z,68.48
2023-02-10T05:42:28.689Z,67.52
2023-02-10T05:43:28.671Z,66.85
2023-02-10T05:44:28.791Z,66.24
2023-02-10T05:45:28.676Z,66.77
2023-02-10T05:46:28.641Z,66.99
2023-02-10T05:47:28.631Z,67.31
2023-02-10T05:48:28.654Z,68.48
2023-02-10T05:49:28.628Z,68.55
2023-02-10T05:50:28.635Z,68.48
2023-02-10T05:51:28.589Z,67.73
2023-02-10T05:52:28.580Z,66.46
2023-02-10T05:53:28.569Z,66.42
2023-02-10T05:54:28.566Z,66.56
2023-02-10T05:55:28.547Z,67.20
2023-02-10T05:56:28.646Z,67.20
2023-02-10T05:57:28.549Z,67.73
2023-02-10T05:58:28.518Z,67.41
2023-02-10T05:59:28.509Z,67.84
2023-02-10T06:00:28.499Z,68.59
2023-02-10T06:01:28.484Z,67.73
2023-02-10T06:02:28.660Z,67.20
2023-02-10T06:03:28.549Z,67.76
2023-02-10T06:04:28.456Z,68.69
2023-02-10T06:05:28.449Z,69.33
2023-02-10T06:06:28.436Z,70.39
2023-02-10T06:07:28.421Z,68.90
2023-02-10T06:08:28.447Z,67.84
2023-02-10T06:09:28.398Z,66.75
2023-02-10T06:10:28.394Z,66.80
2023-02-10T06:11:28.379Z,67.31
2023-02-10T06:12:28.375Z,67.63
2023-02-10T06:13:28.382Z,68.26
2023-02-10T06:14:28.374Z,68.26
2023-02-10T06:15:28.357Z,70.64
2023-02-10T06:16:28.350Z,70.95
2023-02-10T06:17:28.320Z,69.89
2023-02-10T06:18:28.316Z,68.93
2023-02-10T06:19:28.300Z,68.37
2023-02-10T06:20:28.325Z,68.62
2023-02-10T06:21:28.274Z,68.62
2023-02-10T06:22:28.278Z,67.66
2023-02-10T06:23:28.258Z,68.08
2023-02-10T06:24:28.266Z,68.26
2023-02-10T06:25:28.237Z,69.15
2023-02-10T06:26:28.248Z,68.72
2023-02-10T06:27:28.247Z,69.86
2023-02-10T06:28:28.224Z,68.83
2023-02-10T06:29:28.220Z,68.40
2023-02-10T06:30:28.339Z,68.90
2023-02-10T06:31:28.289Z,67.73
2023-02-10T06:32:28.175Z,67.31
2023-02-10T06:33:28.162Z,66.35
2023-02-10T06:34:28.150Z,65.92
2023-02-10T06:35:35.651Z,65.61
2023-02-10T06:36:35.637Z,66.53
2023-02-10T06:37:36.634Z,66.14
2023-02-10T06:38:35.759Z,66.32
2023-02-10T06:39:35.607Z,65.61
2023-02-10T06:40:35.598Z,65.89
2023-02-10T06:41:35.578Z,65.89
2023-02-10T06:42:35.590Z,65.05
2023-02-10T06:43:28.045Z,65.68
2023-02-10T06:44:35.594Z,65.58
2023-02-10T06:45:28.030Z,65.58
2023-02-10T06:46:35.630Z,64.20
2023-02-10T06:47:35.516Z,63.21
2023-02-10T06:48:27.990Z,63.02
2023-02-10T06:49:27.978Z,63.02
2023-02-10T06:50:27.973Z,64.30
2023-02-10T06:51:27.966Z,64.40
2023-02-10T06:52:27.965Z,64.73
2023-02-10T06:53:27.941Z,64.51
2023-02-10T06:54:27.928Z,66.53
2023-02-10T06:55:27.923Z,64.83
2023-02-10T06:56:27.928Z,64.94
2023-02-10T06:57:27.951Z,63.77
2023-02-10T06:58:27.888Z,63.67
2023-02-10T06:59:27.873Z,62.79
2023-02-10T07:00:27.894Z,62.99
2023-02-10T07:01:27.900Z,62.46
2023-02-10T07:02:27.912Z,62.79
2023-02-10T07:03:27.828Z,64.38
2023-02-10T07:04:27.823Z,65.23
2023-02-10T07:05:27.822Z,65.33
2023-02-10T07:06:27.811Z,65.44
2023-02-10T07:07:27.807Z,64.80
2023-02-10T07:08:27.783Z,64.91
2023-02-10T07:09:27.775Z,65.62
2023-02-10T07:10:27.766Z,65.97
2023-02-10T07:11:27.774Z,64.38
2023-02-10T07:12:27.755Z,64.78
2023-02-10T07:13:27.744Z,64.48
2023-02-10T07:14:27.721Z,64.03
2023-02-10T07:15:27.749Z,66.16
2023-02-10T07:16:27.724Z,65.44
2023-02-10T07:17:27.694Z,64.14
2023-02-10T07:18:27.701Z,64.45
2023-02-10T07:19:27.672Z,64.45
2023-02-10T07:20:27.660Z,65.01
2023-02-10T07:21:27.656Z,63.29
2023-02-10T07:22:27.641Z,63.07
2023-02-10T07:23:36.164Z,64.14
2023-02-10T07:24:28.644Z,64.67
2023-02-10T07:25:27.612Z,64.25
2023-02-10T07:26:27.596Z,64.35
2023-02-10T07:27:27.589Z,64.03
2023-02-10T07:28:27.610Z,66.58
2023-02-10T07:29:27.578Z,65.84
2023-02-10T07:30:27.572Z,66.47
2023-02-10T07:31:27.675Z,64.91
2023-02-10T07:32:27.563Z,63.95
2023-02-10T07:33:27.528Z,63.18
2023-02-10T07:34:27.514Z,63.92
2023-02-10T07:35:27.505Z,65.31
2023-02-10T07:36:27.509Z,65.20
2023-02-10T07:37:27.525Z,65.31
2023-02-10T07:38:27.486Z,65.62
2023-02-10T07:39:27.461Z,67.35
2023-02-10T07:40:27.448Z,68.17
2023-02-10T07:41:27.440Z,68.41
2023-02-10T07:42:27.442Z,68.76
2023-02-10T07:43:27.421Z,66.58
2023-02-10T07:44:27.418Z,64.67
2023-02-10T07:45:27.419Z,64.78
2023-02-10T07:46:27.418Z,64.91
2023-02-10T07:47:27.377Z,67.35
2023-02-10T07:48:27.397Z,68.34
2023-02-10T07:49:27.374Z,67.88
2023-02-10T07:50:30.262Z,68.10
2023-02-10T07:51:27.351Z,64.38
2023-02-10T07:52:27.321Z,65.97
2023-02-10T07:53:27.317Z,66.29
2023-02-10T07:54:27.321Z,63.60
2023-02-10T07:55:27.306Z,62.99
2023-02-10T07:56:27.277Z,64.17
2023-02-10T07:57:27.274Z,63.18
2023-02-10T07:58:27.265Z,62.44
2023-02-10T07:59:27.261Z,62.97
2023-02-10T08:00:27.252Z,62.86
2023-02-10T08:01:27.239Z,62.01
2023-02-10T08:02:27.281Z,63.29
2023-02-10T08:03:27.225Z,63.92
2023-02-10T08:04:27.234Z,64.56
2023-02-10T08:05:27.234Z,65.41
2023-02-10T08:06:27.194Z,66.29
2023-02-10T08:07:27.166Z,66.58
2023-02-10T08:08:27.171Z,65.41
2023-02-10T08:09:27.145Z,62.86
2023-02-10T08:10:27.129Z,61.59
2023-02-10T08:11:27.128Z,60.71
2023-02-10T08:12:27.126Z,60.18
2023-02-10T08:13:27.101Z,59.44
2023-02-10T08:14:27.106Z,59.09
2023-02-10T08:15:27.086Z,57.84
2023-02-10T08:16:27.161Z,57.71
2023-02-10T08:17:27.061Z,57.40
2023-02-10T08:18:27.067Z,56.73
2023-02-10T08:19:27.048Z,57.16
2023-02-10T08:20:27.106Z,56.60
2023-02-10T08:21:27.018Z,55.36
2023-02-10T08:22:27.083Z,54.84
2023-02-10T08:23:27.005Z,53.16
2023-02-10T08:24:26.989Z,53.74
2023-02-10T08:25:26.982Z,51.46
2023-02-10T08:26:26.977Z,48.89
2023-02-10T08:27:26.961Z,47.79
2023-02-10T08:28:27.015Z,47.16
2023-02-10T08:29:26.935Z,46.83
2023-02-10T08:30:27.029Z,46.07
2023-02-10T08:31:26.995Z,44.83
2023-02-10T08:32:26.922Z,46.49
2023-02-10T08:33:30.203Z,46.30
2023-02-10T08:34:26.881Z,46.72
2023-02-10T08:35:26.872Z,46.11
2023-02-10T08:36:26.883Z,45.86
2023-02-10T08:37:26.855Z,46.26
2023-02-10T08:38:26.846Z,44.79
2023-02-10T08:39:26.829Z,46.24
2023-02-10T08:40:26.902Z,46.22
2023-02-10T08:41:26.829Z,44.85
2023-02-10T08:42:26.793Z,43.87
2023-02-10T08:43:26.797Z,43.56
2023-02-10T08:44:26.770Z,44.27
2023-02-10T08:45:26.765Z,43.41
2023-02-10T08:46:26.794Z,43.54
2023-02-10T08:47:26.752Z,43.23
2023-02-10T08:48:26.836Z,44.34
2023-02-10T08:49:26.734Z,44.25
2023-02-10T08:50:26.727Z,44.90
2023-02-10T08:51:26.705Z,44.81
2023-02-10T08:52:26.718Z,45.21
2023-02-10T08:53:26.680Z,44.69
2023-02-10T08:54:26.677Z,46.07
2023-02-10T08:55:26.657Z,46.64
2023-02-10T08:56:26.657Z,48.58
2023-02-10T08:57:26.648Z,47.33
2023-02-10T08:58:26.641Z,47.02
2023-02-10T08:59:26.617Z,46.14
2023-02-10T09:00:26.636Z,44.85
2023-02-10T09:01:28.668Z,44.67
2023-02-10T09:02:26.653Z,45.09
2023-02-10T09:03:26.572Z,45.73
2023-02-10T09:04:26.592Z,47.02
2023-02-10T09:05:26.571Z,48.38
2023-02-10T09:06:26.534Z,47.93
2023-02-10T09:07:26.528Z,48.16
2023-02-10T09:08:26.537Z,47.98
2023-02-10T09:09:26.511Z,47.98
2023-02-10T09:10:26.513Z,46.62
2023-02-10T09:11:26.487Z,45.99
2023-02-10T09:12:26.472Z,46.32
2023-02-10T09:13:26.464Z,47.58
2023-02-10T09:14:26.450Z,46.77
2023-02-10T09:15:26.442Z,46.22
2023-02-10T09:16:26.501Z,46.22
2023-02-10T09:17:26.454Z,46.93
2023-02-10T09:18:26.409Z,45.04
2023-02-10T09:19:26.409Z,45.99
2023-02-10T09:20:26.387Z,46.49
2023-02-10T09:21:29.071Z,46.78
2023-02-10T09:22:27.387Z,47.83
2023-02-10T09:23:26.363Z,46.95
2023-02-10T09:24:26.372Z,46.03
2023-02-10T09:25:26.347Z,46.03
2023-02-10T09:26:26.323Z,45.19
2023-02-10T09:27:26.319Z,44.85
2023-02-10T09:28:26.395Z,44.94
2023-02-10T09:29:26.311Z,44.63
2023-02-10T09:30:26.281Z,44.53
2023-02-10T09:31:26.432Z,44.09
2023-02-10T09:32:26.268Z,44.82
2023-02-10T09:33:26.264Z,44.84
2023-02-10T09:34:26.252Z,44.82
2023-02-10T09:35:26.239Z,45.95
2023-02-10T09:36:26.331Z,44.82
2023-02-10T09:37:26.219Z,43.37
2023-02-10T09:38:26.204Z,44.21
2023-02-10T09:39:26.204Z,43.81
2023-02-10T09:40:26.209Z,43.37
2023-02-10T09:41:26.208Z,44.19
2023-02-10T09:42:26.167Z,42.83
2023-02-10T09:43:26.150Z,43.16
2023-02-10T09:44:26.144Z,42.21
2023-02-10T09:45:26.133Z,42.79
2023-02-10T09:46:26.151Z,43.32
2023-02-10T09:47:26.113Z,42.06
2023-02-10T09:48:26.096Z,41.83
2023-02-10T09:49:26.089Z,41.85
2023-02-10T09:50:26.073Z,44.26
2023-02-10T09:51:26.066Z,43.73
2023-02-10T09:52:26.065Z,44.15
2023-02-10T09:53:26.044Z,44.13
2023-02-10T09:54:26.032Z,44.32
2023-02-10T09:55:26.022Z,44.21
2023-02-10T09:56:26.035Z,44.53
2023-02-10T09:57:26.010Z,43.34
2023-02-10T09:58:26.019Z,43.98
2023-02-10T09:59:26.000Z,44.71
2023-02-10T10:00:25.984Z,43.59
2023-02-10T10:01:26.041Z,43.46
2023-02-10T10:02:26.009Z,43.57
2023-02-10T10:03:25.943Z,43.01
2023-02-10T10:04:25.939Z,43.53
2023-02-10T10:05:25.923Z,42.86
2023-02-10T10:06:25.971Z,42.47
2023-02-10T10:07:25.899Z,42.28
2023-02-10T10:08:25.978Z,42.09
2023-02-10T10:09:25.919Z,42.90
2023-02-10T10:10:25.859Z,42.52
2023-02-10T10:11:25.938Z,43.48
2023-02-10T10:12:25.865Z,44.13
2023-02-10T10:13:25.856Z,42.76
2023-02-10T10:14:28.552Z,42.98
2023-02-10T10:15:25.807Z,43.57
2023-02-10T10:16:25.875Z,43.36
2023-02-10T10:17:25.795Z,41.90
2023-02-10T10:18:25.781Z,41.06
2023-02-10T10:19:25.773Z,41.30
2023-02-10T10:20:25.763Z,40.34
2023-02-10T10:21:25.745Z,42.11
2023-02-10T10:22:25.785Z,41.50
2023-02-10T10:23:25.721Z,41.40
2023-02-10T10:24:25.708Z,41.27
2023-02-10T10:25:25.700Z,42.23
2023-02-10T10:26:35.757Z,42.65
2023-02-10T10:27:26.724Z,43.38
2023-02-10T10:28:25.735Z,43.48
2023-02-10T10:29:25.661Z,42.30
2023-02-10T10:30:25.659Z,42.36
2023-02-10T10:31:25.690Z,42.36
2023-02-10T10:32:25.631Z,41.49
2023-02-10T10:33:25.635Z,42.50
2023-02-10T10:34:25.655Z,41.88
2023-02-10T10:35:25.606Z,41.57
2023-02-10T10:36:25.579Z,40.92
2023-02-10T10:37:25.571Z,42.18
2023-02-10T10:38:25.555Z,41.03
2023-02-10T10:39:25.572Z,43.30
2023-02-10T10:40:26.558Z,41.74
2023-02-10T10:41:25.528Z,41.18
2023-02-10T10:42:25.526Z,41.20
2023-02-10T10:43:25.507Z,41.34
2023-02-10T10:44:25.521Z,40.72
2023-02-10T10:45:25.505Z,42.36
2023-02-10T10:46:25.629Z,41.61
2023-02-10T10:47:25.463Z,41.09
2023-02-10T10:48:25.460Z,41.91
2023-02-10T10:49:25.448Z,42.76
2023-02-10T10:50:25.435Z,41.74
2023-02-10T10:51:25.426Z,41.32
2023-02-10T10:52:25.456Z,42.66
2023-02-10T10:53:25.414Z,40.99
2023-02-10T10:54:25.385Z,41.72
2023-02-10T10:55:25.381Z,41.32
2023-02-10T10:56:25.364Z,42.07
2023-02-10T10:57:25.355Z,42.61
2023-02-10T10:58:25.381Z,41.25
2023-02-10T10:59:25.380Z,41.32
2023-02-10T11:00:25.346Z,42.18
2023-02-10T11:01:25.371Z,41.95
2023-02-10T11:02:25.366Z,41.11
2023-02-10T11:03:25.293Z,41.70
2023-02-10T11:04:25.330Z,41.18
2023-02-10T11:05:25.270Z,42.64
2023-02-10T11:06:25.257Z,41.16
2023-02-10T11:07:25.249Z,40.12
2023-02-10T11:08:25.242Z,40.95
2023-02-10T11:09:25.233Z,41.35
2023-02-10T11:10:25.277Z,41.13
2023-02-10T11:11:37.494Z,40.42
2023-02-10T11:12:26.188Z,40.75
2023-02-10T11:13:25.182Z,42.22
2023-02-10T11:14:25.169Z,42.20
2023-02-10T11:15:25.170Z,42.68
2023-02-10T11:16:25.256Z,41.94
2023-02-10T11:17:25.150Z,40.99
2023-02-10T11:18:25.122Z,40.30
2023-02-10T11:19:25.134Z,40.81
2023-02-10T11:20:25.103Z,40.09
2023-02-10T11:21:25.095Z,42.47
2023-02-10T11:22:25.113Z,43.08
2023-02-10T11:23:25.070Z,41.77
2023-02-10T11:24:25.085Z,41.27
2023-02-10T11:25:25.059Z,40.54
2023-02-10T11:26:25.042Z,41.77
2023-02-10T11:27:25.028Z,42.39
2023-02-10T11:28:25.168Z,42.08
2023-02-10T11:29:25.009Z,40.73
2023-02-10T11:30:24.996Z,42.06
2023-02-10T11:31:25.097Z,40.31
2023-02-10T11:32:25.001Z,40.92
2023-02-10T11:33:24.972Z,41.64
2023-02-10T11:34:24.997Z,40.12
2023-02-10T11:35:24.939Z,40.52
2023-02-10T11:36:24.931Z,40.92
2023-02-10T11:37:24.936Z,39.48
2023-02-10T11:38:24.909Z,40.85
2023-02-10T11:39:24.894Z,41.02
2023-02-10T11:40:24.930Z,41.04
2023-02-10T11:41:24.875Z,40.73
2023-02-10T11:42:24.864Z,40.09
2023-02-10T11:43:24.861Z,39.32
2023-02-10T11:44:24.845Z,39.22
2023-02-10T11:45:24.834Z,41.19
2023-02-10T11:46:24.948Z,38.51
2023-02-10T11:47:24.805Z,40.48
2023-02-10T11:48:24.834Z,39.54
2023-02-10T11:49:24.784Z,39.43
2023-02-10T11:50:24.777Z,38.70
2023-02-10T11:51:24.763Z,39.25
2023-02-10T11:52:24.813Z,38.40
2023-02-10T11:53:24.744Z,38.82
2023-02-10T11:54:24.752Z,38.61
2023-02-10T11:55:24.725Z,37.68
2023-02-10T11:56:26.552Z,37.26
2023-02-10T11:57:24.696Z,37.37
2023-02-10T11:58:24.715Z,39.44
2023-02-10T11:59:24.680Z,38.39
2023-02-10T12:00:24.679Z,40.67
2023-02-10T12:01:24.650Z,41.06
2023-02-10T12:02:24.664Z,39.89
2023-02-10T12:03:24.641Z,39.56
2023-02-10T12:04:24.719Z,38.32
2023-02-10T12:05:24.664Z,39.46
2023-02-10T12:06:36.210Z,39.46
2023-02-10T12:07:25.586Z,38.54
2023-02-10T12:08:24.575Z,38.15
2023-02-10T12:09:24.568Z,39.29
2023-02-10T12:10:24.608Z,38.65
2023-02-10T12:11:24.545Z,37.59
2023-02-10T12:12:24.544Z,37.88
2023-02-10T12:13:24.525Z,38.57
2023-02-10T12:14:24.509Z,36.73
2023-02-10T12:15:24.538Z,37.65
2023-02-10T12:16:24.525Z,37.04
2023-02-10T12:17:24.473Z,36.65
2023-02-10T12:18:24.466Z,37.15
2023-02-10T12:19:24.454Z,37.35
2023-02-10T12:20:24.467Z,37.87
2023-02-10T12:21:24.562Z,37.15
2023-02-10T12:22:24.474Z,37.25
2023-02-10T12:23:24.407Z,38.51
2023-02-10T12:24:24.404Z,37.57
2023-02-10T12:25:24.395Z,36.66
2023-02-10T12:26:24.379Z,37.49
2023-02-10T12:27:24.382Z,38.56
2023-02-10T12:28:24.525Z,37.34
2023-02-10T12:29:24.343Z,38.27
2023-02-10T12:30:24.342Z,39.18
2023-02-10T12:31:24.451Z,41.13
2023-02-10T12:32:24.347Z,39.39
2023-02-10T12:33:24.301Z,39.74
2023-02-10T12:34:24.364Z,40.03
2023-02-10T12:35:24.280Z,40.96
2023-02-10T12:36:24.294Z,40.80
2023-02-10T12:37:24.269Z,41.08
2023-02-10T12:38:24.257Z,38.59
2023-02-10T12:39:24.255Z,37.23
2023-02-10T12:40:24.305Z,38.59
2023-02-10T12:41:24.225Z,39.04
2023-02-10T12:42:26.724Z,38.85
2023-02-10T12:43:24.197Z,40.59
2023-02-10T12:44:24.185Z,37.30
2023-02-10T12:45:24.182Z,39.06
2023-02-10T12:46:24.398Z,39.87
2023-02-10T12:47:24.182Z,40.09
2023-02-10T12:48:24.143Z,39.18
2023-02-10T12:49:24.129Z,39.17
2023-02-10T12:50:24.121Z,39.25
2023-02-10T12:51:24.118Z,39.37
2023-02-10T12:52:24.152Z,37.52